This is the latest recevied weather packets stored in our database for station/object HB9MIR-13. If no packets are shown the sender has not sent any weather packets the latest 10 day(s).
| Time | Temp. | Humidity | Pressure | Rain* | Wind** | Luminosity | Snow |
|---|---|---|---|---|---|---|---|
| 1777265203 | 3.33° C | 92% | 1020.2 hPa | 0 mm | - | 16 W/m² | - |
| 1777264514 | 2.78° C | 93% | 1020.2 hPa | 0 mm | - | 11 W/m² | - |
| 1777263826 | 2.78° C | 91% | 1020.1 hPa | 0 mm | - | 6 W/m² | - |
| 1777263139 | 3.33° C | 88% | 1020.1 hPa | 0 mm | - | 2 W/m² | - |
| 1777262464 | 3.89° C | 87% | 1020.1 hPa | 0 mm | - | 0 W/m² | - |
| 1777261764 | 2.78° C | 90% | 1020 hPa | 0 mm | - | 0 W/m² | - |
| 1777261077 | 3.33° C | 89% | 1020 hPa | 0 mm | - | 0 W/m² | - |
| 1777260389 | 3.89° C | 86% | 1020 hPa | 0 mm | - | 0 W/m² | - |
| 1777259702 | 3.33° C | 89% | 1020 hPa | 0 mm | - | 0 W/m² | - |
| 1777259015 | 3.89° C | 87% | 1020 hPa | 0 mm | - | 0 W/m² | - |
| 1777258326 | 3.89° C | 86% | 1020 hPa | 0 mm | - | 0 W/m² | - |
| 1777257651 | 4.44° C | 84% | 1019.9 hPa | 0 mm | - | 0 W/m² | - |
| 1777256950 | 4.44° C | 85% | 1019.9 hPa | 0 mm | - | 0 W/m² | - |
| 1777256237 | 4.44° C | 83% | 1019.8 hPa | 0 mm | - | 0 W/m² | - |
| 1777255550 | 4.44° C | 84% | 1019.8 hPa | 0 mm | - | 0 W/m² | - |
| 1777254862 | 5° C | 80% | 1019.8 hPa | 0 mm | - | 0 W/m² | - |
| 1777254126 | 4.44° C | 80% | 1019.8 hPa | 0 mm | - | 0 W/m² | - |
| 1777253426 | 5° C | 81% | 1019.8 hPa | 0 mm | - | 0 W/m² | - |
| 1777252738 | 5° C | 81% | 1019.9 hPa | 0 mm | - | 0 W/m² | - |
| 1777252049 | 5° C | 80% | 1019.9 hPa | 0 mm | - | 0 W/m² | - |
| 1777251362 | 5.56° C | 80% | 1019.9 hPa | 0 mm | - | 0 W/m² | - |
| 1777250625 | 5.56° C | 78% | 1020 hPa | 0 mm | - | 0 W/m² | - |
| 1777249925 | 5.56° C | 77% | 1020 hPa | 0 mm | - | 0 W/m² | - |
| 1777249237 | 5.56° C | 77% | 1020 hPa | 0 mm | - | 0 W/m² | - |
| 1777248549 | 6.11° C | 75% | 1020.2 hPa | 0 mm | - | 0 W/m² | - |
* Rain latest hour (hover to see other rain measurements)
** Current wind speed in m/s (hover to see current wind gust speed)